UKKK/IEV METAR and TAF weather

Enter ICAO airport designator
Station Type Date Time Source
UKKK METAR 2020/01/26 19:00 UTC NOAA

UKKK 261900Z 24002MPS 7000 NSC M01/M02 Q1020 R26/190058 NOSIG


Station Type Date Time Source
UKKK Decoded METAR 2020/01/26 19:00 UTC NOAA

Kyiv, Ukraine (UKKK) 50-24N 030-34E 167M
Jan 26, 2020 - 02:00 PM EST / 2020.01.26 1900 UTC
Wind: from the WSW (240 degrees) at 4 MPH (4 KT):0
Visibility: 4 mile(s):0
Temperature: 30 F (-1 C)
Dew Point: 28 F (-2 C)
Relative Humidity: 92%
Pressure (altimeter): 30.12 in. Hg (1020 hPa)
ob: UKKK 261900Z 24002MPS 7000 NSC M01/M02 Q1020 R26/190058 NOSIG
cycle: 19

Station Type Date Time Source
UKKK TAF 2020/01/26 18:15 UTC NOAA

TAF TAF UKKK 261701Z 2618/2718 22003G08MPS 5000 BR OVC007 TX04/2712Z TNM00/2704Z
TEMPO 2618/2621 1000 BR OVC005
TEMPO 2621/2706 0400 FZFG VV002
BECMG 2706/2708 9999 NSW BKN015

Example: see airport list